<?xml version="1.0" encoding="UTF-8"?>
<gpx version="1.1" creator="2bulu-scraper" xmlns="http://www.topografix.com/GPX/1/1">
  <metadata><name>内江隆昌市</name><desc>source: 2bulu.com trackId=86504459; exported 2026-09-01T17:52:18.030Z</desc>
    <bounds minlat="29.3461214" minlon="105.2752966" maxlat="29.3585612" maxlon="105.2880398"/>
    <link href="https://www.2bulu.com/track/t-2uozWxhMFszp%252FR2KBg5Tzw%253D%253D.htm"><text>2bulu 源页面</text></link>
  </metadata>
  <wpt lat="29.3565998" lon="105.278812"><ele>352</ele><name>招待所
        </name></wpt>
  <wpt lat="29.3562653" lon="105.2787501"><ele>347</ele><name>学校
        </name></wpt>
  <wpt lat="29.3560815" lon="105.2787098"><ele>349</ele><name>
        </name></wpt>
  <wpt lat="29.3559091" lon="105.2786417"><ele>350</ele><name>塑料厂
        </name></wpt>
  <wpt lat="29.3558142" lon="105.2786401"><ele>352</ele><name>塑料厂
        </name></wpt>
  <wpt lat="29.355716" lon="105.2786503"><ele>349</ele><name>塑料厂
        </name></wpt>
  <wpt lat="29.3553583" lon="105.2785466"><ele>359</ele><name>道路
        </name></wpt>
  <wpt lat="29.3551877" lon="105.2784592"><ele>353</ele><name>石材厂
        </name></wpt>
  <wpt lat="29.3566023" lon="105.2788514"><ele>346</ele><name>招待所
        </name></wpt>
  <wpt lat="29.3566023" lon="105.2788514"><ele>346</ele><name>招待所
        </name></wpt>
  <wpt lat="29.357196" lon="105.278027"><ele>341</ele><name>原招待所
        </name></wpt>
  <wpt lat="29.3569575" lon="105.2777145"><ele>340</ele><name>招待所
        </name></wpt>
  <wpt lat="29.3572134" lon="105.2779935"><ele>342</ele><name>佳德医院
        </name></wpt>
  <wpt lat="29.3572904" lon="105.2780445"><ele>342</ele><name>
        </name></wpt>
  <wpt lat="29.3572904" lon="105.2780445"><ele>342</ele><name>
        </name></wpt>
  <wpt lat="29.3575047" lon="105.2777953"><ele>340</ele><name>招待所外立面
        </name></wpt>
  <wpt lat="29.3573681" lon="105.2776962"><ele>355</ele><name>内部
        </name></wpt>
  <wpt lat="29.3575902" lon="105.277677"><ele>339</ele><name>
        </name></wpt>
  <wpt lat="29.3575902" lon="105.277677"><ele>339</ele><name>
        </name></wpt>
  <wpt lat="29.3577391" lon="105.2774107"><ele>335</ele><name>铁路医院
        </name></wpt>
  <wpt lat="29.3575698" lon="105.2771987"><ele>332</ele><name>铁路医院内部立面
        </name></wpt>
  <wpt lat="29.3575698" lon="105.2771987"><ele>332</ele><name>
        </name></wpt>
  <wpt lat="29.3575698" lon="105.2771987"><ele>332</ele><name>铁路医院围墙
        </name></wpt>
  <wpt lat="29.3578255" lon="105.2769755"><ele>335</ele><name>铁路医院内部
        </name></wpt>
  <wpt lat="29.3578255" lon="105.2769755"><ele>335</ele><name>
        </name></wpt>
  <wpt lat="29.3579555" lon="105.2771086"><ele>337</ele><name>铁路医院
        </name></wpt>
  <wpt lat="29.3580871" lon="105.2770036"><ele>333</ele><name>断头路
        </name></wpt>
  <wpt lat="29.3583278" lon="105.2761913"><ele>334</ele><name>内部道路
        </name></wpt>
  <wpt lat="29.3585466" lon="105.2759864"><ele>335</ele><name>停车
        </name></wpt>
  <wpt lat="29.3580058" lon="105.2755992"><ele>340</ele><name>隆昌交接站，废弃
        </name></wpt>
  <wpt lat="29.3580069" lon="105.2753874"><ele>337</ele><name>
        </name></wpt>
  <wpt lat="29.3580499" lon="105.2752966"><ele>340</ele><name>闲置
        </name></wpt>
  <wpt lat="29.3580499" lon="105.2752966"><ele>340</ele><name>内部情况
        </name></wpt>
  <wpt lat="29.3580499" lon="105.2752966"><ele>340</ele><name>
        </name></wpt>
  <wpt lat="29.3579374" lon="105.2772191"><ele>335</ele><name>
        </name></wpt>
  <wpt lat="29.3577445" lon="105.2776111"><ele>335</ele><name>
        </name></wpt>
  <wpt lat="29.3576281" lon="105.2777929"><ele>338</ele><name>
        </name></wpt>
  <wpt lat="29.3572201" lon="105.2783268"><ele>338</ele><name>社区康复驿站
        </name></wpt>
  <wpt lat="29.3571418" lon="105.2784745"><ele>340</ele><name>
        </name></wpt>
  <wpt lat="29.3568989" lon="105.2782731"><ele>340</ele><name>街区工作
        </name></wpt>
  <wpt lat="29.3569162" lon="105.278273"><ele>340</ele><name>
        </name></wpt>
  <trk><name>内江隆昌市</name>
      <trkseg>
        <trkpt lat="29.3567659" lon="105.2788542"><ele>350.42</ele><time>2026-06-23T17:39:28.000Z</time></trkpt>
        <trkpt lat="29.3566884" lon="105.2788097"><ele>350.42</ele><time>2026-06-23T17:39:38.000Z</time></trkpt>
        <trkpt lat="29.3565998" lon="105.278812"><ele>349.97</ele><time>2026-06-23T17:39:48.000Z</time></trkpt>
        <trkpt lat="29.3565369" lon="105.2787852"><ele>350.87</ele><time>2026-06-23T17:39:54.000Z</time></trkpt>
        <trkpt lat="29.3564514" lon="105.2787904"><ele>351.84</ele><time>2026-06-23T17:40:08.000Z</time></trkpt>
        <trkpt lat="29.3563601" lon="105.2787835"><ele>351.23</ele><time>2026-06-23T17:40:24.000Z</time></trkpt>
        <trkpt lat="29.3562653" lon="105.2787501"><ele>350.31</ele><time>2026-06-23T17:40:40.000Z</time></trkpt>
        <trkpt lat="29.3561733" lon="105.2787266"><ele>348.99</ele><time>2026-06-23T17:41:04.000Z</time></trkpt>
        <trkpt lat="29.3560815" lon="105.2787098"><ele>348.56</ele><time>2026-06-23T17:41:24.000Z</time></trkpt>
        <trkpt lat="29.3560012" lon="105.2786522"><ele>348.66</ele><time>2026-06-23T17:41:40.000Z</time></trkpt>
        <trkpt lat="29.3559091" lon="105.2786417"><ele>349.27</ele><time>2026-06-23T17:41:54.000Z</time></trkpt>
        <trkpt lat="29.3558142" lon="105.2786401"><ele>349.73</ele><time>2026-06-23T17:42:18.000Z</time></trkpt>
        <trkpt lat="29.355716" lon="105.2786503"><ele>350.54</ele><time>2026-06-23T17:42:40.000Z</time></trkpt>
        <trkpt lat="29.3556223" lon="105.2786297"><ele>349.82</ele><time>2026-06-23T17:43:02.000Z</time></trkpt>
        <trkpt lat="29.3555343" lon="105.2785948"><ele>350.56</ele><time>2026-06-23T17:43:26.000Z</time></trkpt>
        <trkpt lat="29.3554445" lon="105.2785819"><ele>352.69</ele><time>2026-06-23T17:43:38.000Z</time></trkpt>
        <trkpt lat="29.3553583" lon="105.2785466"><ele>355.35</ele><time>2026-06-23T17:43:52.000Z</time></trkpt>
        <trkpt lat="29.3552721" lon="105.278508"><ele>356.75</ele><time>2026-06-23T17:44:06.000Z</time></trkpt>
        <trkpt lat="29.3551877" lon="105.2784592"><ele>355.79</ele><time>2026-06-23T17:44:24.000Z</time></trkpt>
        <trkpt lat="29.3552819" lon="105.2784622"><ele>354.56</ele><time>2026-06-23T17:45:26.000Z</time></trkpt>
        <trkpt lat="29.3553764" lon="105.2784984"><ele>353.12</ele><time>2026-06-23T17:45:40.000Z</time></trkpt>
        <trkpt lat="29.3554721" lon="105.2785343"><ele>352.16</ele><time>2026-06-23T17:45:52.000Z</time></trkpt>
        <trkpt lat="29.3555639" lon="105.2785735"><ele>352.25</ele><time>2026-06-23T17:46:04.000Z</time></trkpt>
        <trkpt lat="29.3556593" lon="105.2786123"><ele>352.34</ele><time>2026-06-23T17:46:18.000Z</time></trkpt>
        <trkpt lat="29.3557577" lon="105.2786569"><ele>351.14</ele><time>2026-06-23T17:46:30.000Z</time></trkpt>
        <trkpt lat="29.3558587" lon="105.2786856"><ele>348.7</ele><time>2026-06-23T17:46:40.000Z</time></trkpt>
        <trkpt lat="29.3559549" lon="105.2787039"><ele>347.52</ele><time>2026-06-23T17:46:56.000Z</time></trkpt>
        <trkpt lat="29.3560478" lon="105.2787206"><ele>346.66</ele><time>2026-06-23T17:47:06.000Z</time></trkpt>
        <trkpt lat="29.3561393" lon="105.2787208"><ele>345.48</ele><time>2026-06-23T17:47:14.000Z</time></trkpt>
        <trkpt lat="29.3562415" lon="105.2787204"><ele>346.56</ele><time>2026-06-23T17:47:26.000Z</time></trkpt>
        <trkpt lat="29.356345" lon="105.2787523"><ele>346.78</ele><time>2026-06-23T17:47:36.000Z</time></trkpt>
        <trkpt lat="29.3564446" lon="105.2787881"><ele>345.3</ele><time>2026-06-23T17:47:46.000Z</time></trkpt>
        <trkpt lat="29.356543" lon="105.2788215"><ele>343.91</ele><time>2026-06-23T17:47:56.000Z</time></trkpt>
        <trkpt lat="29.3566023" lon="105.2788514"><ele>344.55</ele><time>2026-06-23T17:48:04.000Z</time></trkpt>
        <trkpt lat="29.3566861" lon="105.2788455"><ele>345.35</ele><time>2026-06-23T17:48:40.000Z</time></trkpt>
        <trkpt lat="29.3567864" lon="105.2788577"><ele>348.66</ele><time>2026-06-23T17:48:50.000Z</time></trkpt>
        <trkpt lat="29.3568343" lon="105.2787789"><ele>347.97</ele><time>2026-06-23T17:49:00.000Z</time></trkpt>
        <trkpt lat="29.3568834" lon="105.2786705"><ele>345.2</ele><time>2026-06-23T17:49:10.000Z</time></trkpt>
        <trkpt lat="29.3569414" lon="105.278567"><ele>344.13</ele><time>2026-06-23T17:49:18.000Z</time></trkpt>
        <trkpt lat="29.3569787" lon="105.2784641"><ele>343.32</ele><time>2026-06-23T17:49:28.000Z</time></trkpt>
        <trkpt lat="29.3570372" lon="105.278367"><ele>342.21</ele><time>2026-06-23T17:49:42.000Z</time></trkpt>
        <trkpt lat="29.3570816" lon="105.2782723"><ele>341.71</ele><time>2026-06-23T17:49:52.000Z</time></trkpt>
        <trkpt lat="29.3571333" lon="105.2781847"><ele>341.2</ele><time>2026-06-23T17:50:02.000Z</time></trkpt>
        <trkpt lat="29.3571774" lon="105.2780897"><ele>341.46</ele><time>2026-06-23T17:50:12.000Z</time></trkpt>
        <trkpt lat="29.357196" lon="105.278027"><ele>341.38</ele><time>2026-06-23T17:50:20.000Z</time></trkpt>
        <trkpt lat="29.3571636" lon="105.277945"><ele>341.2</ele><time>2026-06-23T17:50:32.000Z</time></trkpt>
        <trkpt lat="29.357098" lon="105.2778568"><ele>341.67</ele><time>2026-06-23T17:50:44.000Z</time></trkpt>
        <trkpt lat="29.3570263" lon="105.2777737"><ele>341.26</ele><time>2026-06-23T17:50:54.000Z</time></trkpt>
        <trkpt lat="29.3569575" lon="105.2777145"><ele>341.18</ele><time>2026-06-23T17:51:10.000Z</time></trkpt>
        <trkpt lat="29.3570044" lon="105.2777505"><ele>340.77</ele><time>2026-06-23T17:51:44.000Z</time></trkpt>
        <trkpt lat="29.3570974" lon="105.2777977"><ele>340.69</ele><time>2026-06-23T17:51:54.000Z</time></trkpt>
        <trkpt lat="29.3571669" lon="105.2778853"><ele>340.62</ele><time>2026-06-23T17:52:06.000Z</time></trkpt>
        <trkpt lat="29.3572134" lon="105.2779935"><ele>340.29</ele><time>2026-06-23T17:52:18.000Z</time></trkpt>
        <trkpt lat="29.3572904" lon="105.2780445"><ele>340.97</ele><time>2026-06-23T17:52:34.000Z</time></trkpt>
        <trkpt lat="29.3573505" lon="105.2779853"><ele>341.59</ele><time>2026-06-23T17:52:55.000Z</time></trkpt>
        <trkpt lat="29.3574013" lon="105.2778786"><ele>341.67</ele><time>2026-06-23T17:53:03.000Z</time></trkpt>
        <trkpt lat="29.3574835" lon="105.2778201"><ele>340.58</ele><time>2026-06-23T17:53:17.000Z</time></trkpt>
        <trkpt lat="29.3575047" lon="105.2777953"><ele>340.45</ele><time>2026-06-23T17:53:19.000Z</time></trkpt>
        <trkpt lat="29.3574574" lon="105.2777289"><ele>340.2</ele><time>2026-06-23T17:53:41.000Z</time></trkpt>
        <trkpt lat="29.3574351" lon="105.2776272"><ele>339.2</ele><time>2026-06-23T17:53:55.000Z</time></trkpt>
        <trkpt lat="29.3573412" lon="105.2776475"><ele>339.16</ele><time>2026-06-23T17:54:03.000Z</time></trkpt>
        <trkpt lat="29.3572341" lon="105.2777102"><ele>339</ele><time>2026-06-23T17:54:09.000Z</time></trkpt>
        <trkpt lat="29.3571422" lon="105.2777984"><ele>337.37</ele><time>2026-06-23T17:54:21.000Z</time></trkpt>
        <trkpt lat="29.3571603" lon="105.2778897"><ele>341.6</ele><time>2026-06-23T17:54:55.000Z</time></trkpt>
        <trkpt lat="29.3572267" lon="105.2778202"><ele>351.97</ele><time>2026-06-23T17:55:07.000Z</time></trkpt>
        <trkpt lat="29.3572715" lon="105.2777013"><ele>358.67</ele><time>2026-06-23T17:55:11.000Z</time></trkpt>
        <trkpt lat="29.357345" lon="105.2775944"><ele>362.87</ele><time>2026-06-23T17:55:17.000Z</time></trkpt>
        <trkpt lat="29.3573026" lon="105.2775938"><ele>365.44</ele><time>2026-06-23T17:55:23.000Z</time></trkpt>
        <trkpt lat="29.3573529" lon="105.2776081"><ele>368.06</ele><time>2026-06-23T17:55:37.000Z</time></trkpt>
        <trkpt lat="29.3572981" lon="105.2775864"><ele>365.66</ele><time>2026-06-23T17:56:21.000Z</time></trkpt>
        <trkpt lat="29.3572775" lon="105.2775746"><ele>354.46</ele><time>2026-06-23T17:56:29.000Z</time></trkpt>
        <trkpt lat="29.3573108" lon="105.2776407"><ele>347.51</ele><time>2026-06-23T17:57:23.000Z</time></trkpt>
        <trkpt lat="29.3573588" lon="105.2777144"><ele>346.66</ele><time>2026-06-23T17:57:35.000Z</time></trkpt>
        <trkpt lat="29.3574411" lon="105.2776995"><ele>348.2</ele><time>2026-06-23T17:58:02.000Z</time></trkpt>
        <trkpt lat="29.3573948" lon="105.2776943"><ele>350.19</ele><time>2026-06-23T17:58:16.000Z</time></trkpt>
        <trkpt lat="29.3573681" lon="105.2776962"><ele>352.02</ele><time>2026-06-23T17:58:18.000Z</time></trkpt>
        <trkpt lat="29.357397" lon="105.2777757"><ele>353.3</ele><time>2026-06-23T17:58:36.000Z</time></trkpt>
        <trkpt lat="29.3574747" lon="105.2778368"><ele>353.14</ele><time>2026-06-23T17:58:44.000Z</time></trkpt>
        <trkpt lat="29.357533" lon="105.2777795"><ele>351.09</ele><time>2026-06-23T17:58:52.000Z</time></trkpt>
        <trkpt lat="29.3575902" lon="105.277677"><ele>346.77</ele><time>2026-06-23T17:59:04.000Z</time></trkpt>
        <trkpt lat="29.3576421" lon="105.2775656"><ele>343.5</ele><time>2026-06-23T17:59:46.000Z</time></trkpt>
        <trkpt lat="29.3576674" lon="105.2774606"><ele>340.53</ele><time>2026-06-23T18:00:02.000Z</time></trkpt>
        <trkpt lat="29.3577489" lon="105.2774235"><ele>337.72</ele><time>2026-06-23T18:02:00.000Z</time></trkpt>
        <trkpt lat="29.3577391" lon="105.2774107"><ele>336.17</ele><time>2026-06-23T18:02:05.000Z</time></trkpt>
        <trkpt lat="29.3577738" lon="105.2773173"><ele>335.46</ele><time>2026-06-23T18:02:26.000Z</time></trkpt>
        <trkpt lat="29.3577443" lon="105.27719"><ele>333.11</ele><time>2026-06-23T18:02:32.000Z</time></trkpt>
        <trkpt lat="29.3576621" lon="105.2771486"><ele>331.05</ele><time>2026-06-23T18:02:36.000Z</time></trkpt>
        <trkpt lat="29.3575698" lon="105.2771987"><ele>330.67</ele><time>2026-06-23T18:02:54.000Z</time></trkpt>
        <trkpt lat="29.3575248" lon="105.2773282"><ele>331.26</ele><time>2026-06-23T18:03:54.000Z</time></trkpt>
        <trkpt lat="29.3576095" lon="105.277377"><ele>331.81</ele><time>2026-06-23T18:04:00.000Z</time></trkpt>
        <trkpt lat="29.357709" lon="105.2773535"><ele>331.63</ele><time>2026-06-23T18:04:06.000Z</time></trkpt>
        <trkpt lat="29.3578107" lon="105.2772978"><ele>331.84</ele><time>2026-06-23T18:04:18.000Z</time></trkpt>
        <trkpt lat="29.3579027" lon="105.2772348"><ele>333.24</ele><time>2026-06-23T18:04:28.000Z</time></trkpt>
        <trkpt lat="29.3579496" lon="105.2771376"><ele>332.87</ele><time>2026-06-23T18:04:40.000Z</time></trkpt>
        <trkpt lat="29.3578971" lon="105.2770603"><ele>332.79</ele><time>2026-06-23T18:05:00.000Z</time></trkpt>
        <trkpt lat="29.3578255" lon="105.2769755"><ele>333.69</ele><time>2026-06-23T18:05:34.000Z</time></trkpt>
        <trkpt lat="29.3578766" lon="105.2770337"><ele>334.22</ele><time>2026-06-23T18:06:34.000Z</time></trkpt>
        <trkpt lat="29.3579555" lon="105.2771086"><ele>336.06</ele><time>2026-06-23T18:06:54.000Z</time></trkpt>
        <trkpt lat="29.3579375" lon="105.277036"><ele>336.44</ele><time>2026-06-23T18:07:16.000Z</time></trkpt>
        <trkpt lat="29.3580025" lon="105.277043"><ele>336.87</ele><time>2026-06-23T18:07:52.000Z</time></trkpt>
        <trkpt lat="29.3580871" lon="105.2770036"><ele>336.01</ele><time>2026-06-23T18:08:06.000Z</time></trkpt>
        <trkpt lat="29.3581483" lon="105.2769137"><ele>334.56</ele><time>2026-06-23T18:08:30.000Z</time></trkpt>
        <trkpt lat="29.3581888" lon="105.2768094"><ele>334.1</ele><time>2026-06-23T18:08:46.000Z</time></trkpt>
        <trkpt lat="29.3582171" lon="105.2767027"><ele>333.62</ele><time>2026-06-23T18:09:02.000Z</time></trkpt>
        <trkpt lat="29.358252" lon="105.2765979"><ele>333.45</ele><time>2026-06-23T18:09:40.000Z</time></trkpt>
        <trkpt lat="29.3582774" lon="105.276491"><ele>334.42</ele><time>2026-06-23T18:09:52.000Z</time></trkpt>
        <trkpt lat="29.3583162" lon="105.2763947"><ele>335.14</ele><time>2026-06-23T18:10:04.000Z</time></trkpt>
        <trkpt lat="29.3583125" lon="105.2762917"><ele>335.15</ele><time>2026-06-23T18:10:14.000Z</time></trkpt>
        <trkpt lat="29.3583278" lon="105.2761913"><ele>334.23</ele><time>2026-06-23T18:10:30.000Z</time></trkpt>
        <trkpt lat="29.3583923" lon="105.2761203"><ele>334.3</ele><time>2026-06-23T18:10:52.000Z</time></trkpt>
        <trkpt lat="29.3584832" lon="105.276071"><ele>335.39</ele><time>2026-06-23T18:11:08.000Z</time></trkpt>
        <trkpt lat="29.3585466" lon="105.2759864"><ele>335.22</ele><time>2026-06-23T18:11:24.000Z</time></trkpt>
        <trkpt lat="29.3585589" lon="105.2758827"><ele>335.06</ele><time>2026-06-23T18:11:46.000Z</time></trkpt>
        <trkpt lat="29.3584943" lon="105.2758217"><ele>335.16</ele><time>2026-06-23T18:11:58.000Z</time></trkpt>
        <trkpt lat="29.3583943" lon="105.2757763"><ele>335.77</ele><time>2026-06-23T18:12:12.000Z</time></trkpt>
        <trkpt lat="29.3582894" lon="105.2757467"><ele>337.09</ele><time>2026-06-23T18:12:24.000Z</time></trkpt>
        <trkpt lat="29.3581847" lon="105.2757096"><ele>338.11</ele><time>2026-06-23T18:12:34.000Z</time></trkpt>
        <trkpt lat="29.3580826" lon="105.2756741"><ele>338.59</ele><time>2026-06-23T18:12:46.000Z</time></trkpt>
        <trkpt lat="29.3580058" lon="105.2755992"><ele>338.32</ele><time>2026-06-23T18:12:58.000Z</time></trkpt>
        <trkpt lat="29.3579925" lon="105.2754982"><ele>339.14</ele><time>2026-06-23T18:13:18.000Z</time></trkpt>
        <trkpt lat="29.3580069" lon="105.2753874"><ele>339.16</ele><time>2026-06-23T18:13:34.000Z</time></trkpt>
        <trkpt lat="29.3580499" lon="105.2752966"><ele>338.14</ele><time>2026-06-23T18:13:52.000Z</time></trkpt>
        <trkpt lat="29.3580778" lon="105.275353"><ele>338.74</ele><time>2026-06-23T18:14:30.000Z</time></trkpt>
        <trkpt lat="29.3580604" lon="105.2754602"><ele>339.28</ele><time>2026-06-23T18:14:48.000Z</time></trkpt>
        <trkpt lat="29.3580517" lon="105.2755819"><ele>339.68</ele><time>2026-06-23T18:15:06.000Z</time></trkpt>
        <trkpt lat="29.3581108" lon="105.2756676"><ele>338.87</ele><time>2026-06-23T18:15:28.000Z</time></trkpt>
        <trkpt lat="29.3581997" lon="105.2757325"><ele>337.13</ele><time>2026-06-23T18:15:40.000Z</time></trkpt>
        <trkpt lat="29.3582943" lon="105.2757734"><ele>335.99</ele><time>2026-06-23T18:15:50.000Z</time></trkpt>
        <trkpt lat="29.3583885" lon="105.2758023"><ele>335.64</ele><time>2026-06-23T18:16:00.000Z</time></trkpt>
        <trkpt lat="29.3584839" lon="105.2758455"><ele>335.22</ele><time>2026-06-23T18:16:12.000Z</time></trkpt>
        <trkpt lat="29.3585612" lon="105.2759179"><ele>334.82</ele><time>2026-06-23T18:16:24.000Z</time></trkpt>
        <trkpt lat="29.3585477" lon="105.2760178"><ele>334.23</ele><time>2026-06-23T18:16:34.000Z</time></trkpt>
        <trkpt lat="29.3584687" lon="105.2760934"><ele>333.48</ele><time>2026-06-23T18:16:44.000Z</time></trkpt>
        <trkpt lat="29.3583677" lon="105.276139"><ele>332.8</ele><time>2026-06-23T18:16:54.000Z</time></trkpt>
        <trkpt lat="29.3583094" lon="105.2762197"><ele>333.45</ele><time>2026-06-23T18:17:02.000Z</time></trkpt>
        <trkpt lat="29.3582758" lon="105.276317"><ele>335.01</ele><time>2026-06-23T18:17:14.000Z</time></trkpt>
        <trkpt lat="29.3582283" lon="105.2764064"><ele>335.99</ele><time>2026-06-23T18:17:26.000Z</time></trkpt>
        <trkpt lat="29.3582069" lon="105.2765185"><ele>336.44</ele><time>2026-06-23T18:17:38.000Z</time></trkpt>
        <trkpt lat="29.3581953" lon="105.2766315"><ele>335.74</ele><time>2026-06-23T18:17:50.000Z</time></trkpt>
        <trkpt lat="29.3581814" lon="105.2767414"><ele>335.48</ele><time>2026-06-23T18:18:00.000Z</time></trkpt>
        <trkpt lat="29.3581424" lon="105.2768452"><ele>335.82</ele><time>2026-06-23T18:18:12.000Z</time></trkpt>
        <trkpt lat="29.3581025" lon="105.2769411"><ele>336.16</ele><time>2026-06-23T18:18:22.000Z</time></trkpt>
        <trkpt lat="29.3580414" lon="105.277028"><ele>336.66</ele><time>2026-06-23T18:18:32.000Z</time></trkpt>
        <trkpt lat="29.357977" lon="105.2771185"><ele>336.74</ele><time>2026-06-23T18:18:42.000Z</time></trkpt>
        <trkpt lat="29.3579374" lon="105.2772191"><ele>336.94</ele><time>2026-06-23T18:18:54.000Z</time></trkpt>
        <trkpt lat="29.3579233" lon="105.2773334"><ele>335.92</ele><time>2026-06-23T18:19:08.000Z</time></trkpt>
        <trkpt lat="29.3578801" lon="105.2774418"><ele>335.06</ele><time>2026-06-23T18:19:18.000Z</time></trkpt>
        <trkpt lat="29.3578018" lon="105.2775113"><ele>334.89</ele><time>2026-06-23T18:19:28.000Z</time></trkpt>
        <trkpt lat="29.3577445" lon="105.2776111"><ele>334.76</ele><time>2026-06-23T18:19:38.000Z</time></trkpt>
        <trkpt lat="29.3576848" lon="105.2776991"><ele>334.78</ele><time>2026-06-23T18:19:50.000Z</time></trkpt>
        <trkpt lat="29.3576281" lon="105.2777929"><ele>335.69</ele><time>2026-06-23T18:20:04.000Z</time></trkpt>
        <trkpt lat="29.3575586" lon="105.2778842"><ele>336.66</ele><time>2026-06-23T18:20:20.000Z</time></trkpt>
        <trkpt lat="29.3574888" lon="105.2779824"><ele>337.58</ele><time>2026-06-23T18:20:30.000Z</time></trkpt>
        <trkpt lat="29.3574212" lon="105.2780757"><ele>338.51</ele><time>2026-06-23T18:20:40.000Z</time></trkpt>
        <trkpt lat="29.3573598" lon="105.2781673"><ele>339.53</ele><time>2026-06-23T18:20:58.000Z</time></trkpt>
        <trkpt lat="29.3572907" lon="105.2782391"><ele>338.39</ele><time>2026-06-23T18:21:10.000Z</time></trkpt>
        <trkpt lat="29.3572201" lon="105.2783268"><ele>338.13</ele><time>2026-06-23T18:21:22.000Z</time></trkpt>
        <trkpt lat="29.3571894" lon="105.2784277"><ele>338.28</ele><time>2026-06-23T18:21:34.000Z</time></trkpt>
        <trkpt lat="29.3571418" lon="105.2784745"><ele>339.31</ele><time>2026-06-23T18:21:44.000Z</time></trkpt>
        <trkpt lat="29.357052" lon="105.2784683"><ele>339.44</ele><time>2026-06-23T18:22:52.000Z</time></trkpt>
        <trkpt lat="29.3569434" lon="105.2784547"><ele>338.95</ele><time>2026-06-23T18:23:14.000Z</time></trkpt>
        <trkpt lat="29.3568527" lon="105.2784186"><ele>338.12</ele><time>2026-06-23T18:23:20.000Z</time></trkpt>
        <trkpt lat="29.3567981" lon="105.278401"><ele>338.61</ele><time>2026-06-23T18:23:24.000Z</time></trkpt>
        <trkpt lat="29.35686" lon="105.278322"><ele>338.93</ele><time>2026-06-23T18:23:36.000Z</time></trkpt>
        <trkpt lat="29.3568989" lon="105.2782731"><ele>339.52</ele><time>2026-06-23T18:23:38.000Z</time></trkpt>
        <trkpt lat="29.3569793" lon="105.2788498"><ele>339.91</ele><time>2026-06-23T19:18:38.000Z</time></trkpt>
        <trkpt lat="29.356948" lon="105.2787338"><ele>347.9</ele><time>2026-06-23T19:18:41.000Z</time></trkpt>
        <trkpt lat="29.356957" lon="105.2788033"><ele>348.08</ele><time>2026-06-23T19:18:57.000Z</time></trkpt>
        <trkpt lat="29.3569501" lon="105.2789133"><ele>344.41</ele><time>2026-06-23T19:19:11.000Z</time></trkpt>
        <trkpt lat="29.3570942" lon="105.2791299"><ele>341.39</ele><time>2026-06-23T19:19:53.000Z</time></trkpt>
        <trkpt lat="29.3570789" lon="105.2791306"><ele>330.65</ele><time>2026-06-23T19:19:58.000Z</time></trkpt>
        <trkpt lat="29.357018" lon="105.2790348"><ele>330.84</ele><time>2026-06-23T19:20:14.000Z</time></trkpt>
        <trkpt lat="29.3569978" lon="105.2788895"><ele>333.58</ele><time>2026-06-23T19:20:20.000Z</time></trkpt>
        <trkpt lat="29.3570227" lon="105.2787477"><ele>335.17</ele><time>2026-06-23T19:20:24.000Z</time></trkpt>
        <trkpt lat="29.3570581" lon="105.2786211"><ele>336.21</ele><time>2026-06-23T19:20:30.000Z</time></trkpt>
        <trkpt lat="29.3536118" lon="105.2844247"><ele>336.98</ele><time>2026-06-23T19:23:19.000Z</time></trkpt>
        <trkpt lat="29.3535569" lon="105.2842258"><ele>338.56</ele><time>2026-06-23T19:23:22.000Z</time></trkpt>
        <trkpt lat="29.3534982" lon="105.2839994"><ele>332.21</ele><time>2026-06-23T19:23:26.000Z</time></trkpt>
        <trkpt lat="29.3534595" lon="105.2838701"><ele>331.41</ele><time>2026-06-23T19:23:30.000Z</time></trkpt>
        <trkpt lat="29.3534311" lon="105.2837468"><ele>331.01</ele><time>2026-06-23T19:23:32.000Z</time></trkpt>
        <trkpt lat="29.3533944" lon="105.2836036"><ele>332.18</ele><time>2026-06-23T19:23:36.000Z</time></trkpt>
        <trkpt lat="29.3533945" lon="105.2834358"><ele>332.69</ele><time>2026-06-23T19:23:40.000Z</time></trkpt>
        <trkpt lat="29.3533377" lon="105.2832794"><ele>332.84</ele><time>2026-06-23T19:23:44.000Z</time></trkpt>
        <trkpt lat="29.35322" lon="105.2831121"><ele>333.97</ele><time>2026-06-23T19:23:48.000Z</time></trkpt>
        <trkpt lat="29.353129" lon="105.2830009"><ele>335</ele><time>2026-06-23T19:23:50.000Z</time></trkpt>
        <trkpt lat="29.3530579" lon="105.2828833"><ele>334.97</ele><time>2026-06-23T19:23:54.000Z</time></trkpt>
        <trkpt lat="29.3530007" lon="105.2827873"><ele>333.56</ele><time>2026-06-23T19:23:58.000Z</time></trkpt>
        <trkpt lat="29.3529394" lon="105.2827072"><ele>332.58</ele><time>2026-06-23T19:24:02.000Z</time></trkpt>
        <trkpt lat="29.352872" lon="105.2826054"><ele>332.48</ele><time>2026-06-23T19:24:08.000Z</time></trkpt>
        <trkpt lat="29.3528203" lon="105.282508"><ele>331.97</ele><time>2026-06-23T19:24:14.000Z</time></trkpt>
        <trkpt lat="29.3527915" lon="105.2824499"><ele>331.31</ele><time>2026-06-23T19:24:22.000Z</time></trkpt>
        <trkpt lat="29.3533033" lon="105.2832321"><ele>331.88</ele><time>2026-06-23T19:28:33.000Z</time></trkpt>
        <trkpt lat="29.353365" lon="105.2831509"><ele>320</ele><time>2026-06-23T19:35:13.000Z</time></trkpt>
        <trkpt lat="29.3533254" lon="105.2832898"><ele>329.91</ele><time>2026-06-23T19:35:18.000Z</time></trkpt>
        <trkpt lat="29.3535567" lon="105.2831701"><ele>316</ele><time>2026-06-23T19:51:54.000Z</time></trkpt>
        <trkpt lat="29.3533987" lon="105.2832243"><ele>316.74</ele><time>2026-06-23T19:51:56.000Z</time></trkpt>
        <trkpt lat="29.3532994" lon="105.2835657"><ele>313.95</ele><time>2026-06-23T20:01:48.000Z</time></trkpt>
        <trkpt lat="29.3533417" lon="105.2834729"><ele>344.39</ele><time>2026-06-23T20:07:13.000Z</time></trkpt>
        <trkpt lat="29.3532656" lon="105.2832748"><ele>357.78</ele><time>2026-06-23T20:07:16.000Z</time></trkpt>
        <trkpt lat="29.3534209" lon="105.2837594"><ele>369.68</ele><time>2026-06-23T20:08:11.000Z</time></trkpt>
        <trkpt lat="29.3534874" lon="105.2840355"><ele>354.12</ele><time>2026-06-23T20:08:15.000Z</time></trkpt>
        <trkpt lat="29.3535427" lon="105.284222"><ele>345.48</ele><time>2026-06-23T20:08:19.000Z</time></trkpt>
        <trkpt lat="29.3535955" lon="105.2843781"><ele>340.53</ele><time>2026-06-23T20:08:23.000Z</time></trkpt>
        <trkpt lat="29.3536432" lon="105.2845128"><ele>337.47</ele><time>2026-06-23T20:08:27.000Z</time></trkpt>
        <trkpt lat="29.3536824" lon="105.2846348"><ele>335.69</ele><time>2026-06-23T20:08:31.000Z</time></trkpt>
        <trkpt lat="29.3537228" lon="105.2847438"><ele>334.04</ele><time>2026-06-23T20:08:35.000Z</time></trkpt>
        <trkpt lat="29.3537757" lon="105.2848413"><ele>332.61</ele><time>2026-06-23T20:08:39.000Z</time></trkpt>
        <trkpt lat="29.3538305" lon="105.2849339"><ele>331.92</ele><time>2026-06-23T20:08:43.000Z</time></trkpt>
        <trkpt lat="29.3538917" lon="105.285012"><ele>331.38</ele><time>2026-06-23T20:08:47.000Z</time></trkpt>
        <trkpt lat="29.3539317" lon="105.2850623"><ele>330.76</ele><time>2026-06-23T20:08:57.000Z</time></trkpt>
        <trkpt lat="29.3539782" lon="105.2851484"><ele>330.49</ele><time>2026-06-23T20:09:05.000Z</time></trkpt>
        <trkpt lat="29.3539305" lon="105.2853242"><ele>330.38</ele><time>2026-06-23T20:09:09.000Z</time></trkpt>
        <trkpt lat="29.3538595" lon="105.2854442"><ele>330.19</ele><time>2026-06-23T20:09:11.000Z</time></trkpt>
        <trkpt lat="29.3537827" lon="105.2855363"><ele>330.22</ele><time>2026-06-23T20:09:13.000Z</time></trkpt>
        <trkpt lat="29.3536925" lon="105.2856701"><ele>330.19</ele><time>2026-06-23T20:09:15.000Z</time></trkpt>
        <trkpt lat="29.3535947" lon="105.2858033"><ele>330.02</ele><time>2026-06-23T20:09:17.000Z</time></trkpt>
        <trkpt lat="29.3534982" lon="105.2859307"><ele>330.06</ele><time>2026-06-23T20:09:19.000Z</time></trkpt>
        <trkpt lat="29.3533492" lon="105.2860956"><ele>329.51</ele><time>2026-06-23T20:09:21.000Z</time></trkpt>
        <trkpt lat="29.3531894" lon="105.2862611"><ele>330.26</ele><time>2026-06-23T20:09:23.000Z</time></trkpt>
        <trkpt lat="29.3530244" lon="105.2864195"><ele>330.93</ele><time>2026-06-23T20:09:25.000Z</time></trkpt>
        <trkpt lat="29.3528712" lon="105.2865878"><ele>330.74</ele><time>2026-06-23T20:09:27.000Z</time></trkpt>
        <trkpt lat="29.3527238" lon="105.2867579"><ele>330.63</ele><time>2026-06-23T20:09:29.000Z</time></trkpt>
        <trkpt lat="29.3525774" lon="105.2869324"><ele>330.84</ele><time>2026-06-23T20:09:31.000Z</time></trkpt>
        <trkpt lat="29.3524211" lon="105.2871067"><ele>331.01</ele><time>2026-06-23T20:09:33.000Z</time></trkpt>
        <trkpt lat="29.3522594" lon="105.2872796"><ele>331.22</ele><time>2026-06-23T20:09:35.000Z</time></trkpt>
        <trkpt lat="29.352084" lon="105.2874442"><ele>331.09</ele><time>2026-06-23T20:09:37.000Z</time></trkpt>
        <trkpt lat="29.3518946" lon="105.2875906"><ele>331.05</ele><time>2026-06-23T20:09:39.000Z</time></trkpt>
        <trkpt lat="29.3517051" lon="105.2877179"><ele>331.09</ele><time>2026-06-23T20:09:41.000Z</time></trkpt>
        <trkpt lat="29.35151" lon="105.2878311"><ele>331.47</ele><time>2026-06-23T20:09:43.000Z</time></trkpt>
        <trkpt lat="29.3513066" lon="105.2879371"><ele>331.79</ele><time>2026-06-23T20:09:45.000Z</time></trkpt>
        <trkpt lat="29.3511131" lon="105.2880398"><ele>331.73</ele><time>2026-06-23T20:09:47.000Z</time></trkpt>
        <trkpt lat="29.3473694" lon="105.2830312"><ele>331.46</ele><time>2026-06-23T20:13:34.000Z</time></trkpt>
        <trkpt lat="29.3474486" lon="105.2831029"><ele>340.96</ele><time>2026-06-23T20:13:49.000Z</time></trkpt>
        <trkpt lat="29.3474944" lon="105.2832031"><ele>341.45</ele><time>2026-06-23T20:13:57.000Z</time></trkpt>
        <trkpt lat="29.3475448" lon="105.2833041"><ele>341.75</ele><time>2026-06-23T20:14:05.000Z</time></trkpt>
        <trkpt lat="29.3461214" lon="105.2803964"><ele>340.96</ele><time>2026-06-23T20:50:32.000Z</time></trkpt>
        <trkpt lat="29.3470207" lon="105.2775589"><ele>335.59</ele><time>2026-06-23T20:52:33.000Z</time></trkpt>
        <trkpt lat="29.3469728" lon="105.2774711"><ele>340.66</ele><time>2026-06-23T20:52:48.000Z</time></trkpt>
        <trkpt lat="29.3469791" lon="105.277543"><ele>344.56</ele><time>2026-06-23T20:53:52.000Z</time></trkpt>
        <trkpt lat="29.3469791" lon="105.277543"><ele>344.56</ele><time>2026-06-23T20:54:03.000Z</time></trkpt>
      </trkseg>
  </trk>
</gpx>